Time;durP1;ratioP1;P1;durP2;ratioP2;P2;SDS_P1;SDS_P2;PMS_P1;PMS_P2;Temp;Humidity;BMP_temperature;BMP_pressure;BME280_temperature;BME280_humidity;BME280_pressure;Samples;Min_cycle;Max_cycle;Signal;HPM_P1;HPM_P2
2023/01/10 00:00:22;;;;;;;1.65;0.68;;;;;;;6.38;100.00;99720.13;5015798;28;20128;-70
2023/01/10 00:02:48;;;;;;;2.53;0.82;;;;;;;6.32;100.00;99714.53;5011520;28;20036;-70
2023/01/10 00:05:14;;;;;;;2.47;0.80;;;;;;;6.33;100.00;99712.78;5013662;28;20029;-70
2023/01/10 00:07:40;;;;;;;2.00;0.73;;;;;;;6.37;100.00;99716.72;5011405;28;20041;-70
2023/01/10 00:10:06;;;;;;;1.50;0.60;;;;;;;6.38;100.00;99720.94;5019585;28;20040;-70
2023/01/10 00:15:15;;;;;;;2.38;0.80;;;;;;;6.37;100.00;99726.25;5014703;28;20104;-70
2023/01/10 00:17:41;;;;;;;1.85;0.70;;;;;;;6.36;100.00;99733.19;5012141;28;20370;-70
2023/01/10 00:20:07;;;;;;;2.30;0.68;;;;;;;6.36;100.00;99722.84;5014358;28;20033;-70
2023/01/10 00:22:32;;;;;;;2.50;0.80;;;;;;;6.37;100.00;99729.66;5012019;28;20053;-69
2023/01/10 00:24:58;;;;;;;3.50;1.13;;;;;;;6.37;100.00;99731.44;5011007;28;20128;-69
2023/01/10 00:27:23;;;;;;;2.53;0.70;;;;;;;6.37;100.00;99731.44;5013251;28;20439;-69
2023/01/10 00:29:52;;;;;;;2.72;0.95;;;;;;;6.38;100.00;99730.47;5013176;28;20087;-70
2023/01/10 00:32:21;;;;;;;2.97;1.40;;;;;;;6.38;100.00;99720.13;5009759;28;20045;-70
2023/01/10 00:34:47;;;;;;;2.00;1.30;;;;;;;6.42;100.00;99731.84;5017866;28;20056;-70
2023/01/10 00:37:13;;;;;;;3.67;1.00;;;;;;;6.41;100.00;99731.03;5010788;28;20034;-70
2023/01/10 00:39:39;;;;;;;2.05;1.05;;;;;;;6.39;100.00;99738.09;5015833;28;20126;-69
2023/01/10 00:44:48;;;;;;;1.40;0.90;;;;;;;6.40;100.00;99742.34;5017320;28;20810;-70
2023/01/10 00:47:14;;;;;;;2.20;0.75;;;;;;;6.36;100.00;99747.91;5020207;28;20067;-70
2023/01/10 00:49:39;;;;;;;2.05;0.65;;;;;;;6.31;100.00;99745.72;5008586;28;20042;-70
2023/01/10 00:52:05;;;;;;;2.45;0.98;;;;;;;6.30;100.00;99749.25;5013587;28;20029;-70
2023/01/10 00:54:30;;;;;;;1.60;0.90;;;;;;;6.29;100.00;99756.19;5013590;28;20037;-69
2023/01/10 00:56:56;;;;;;;1.65;1.38;;;;;;;6.31;100.00;99766.41;5019899;28;21308;-70
2023/01/10 00:59:22;;;;;;;1.20;0.70;;;;;;;6.28;100.00;99767.50;5013394;28;20041;-70
2023/01/10 01:01:49;;;;;;;2.30;1.15;;;;;;;6.27;100.00;99770.22;5016305;28;20125;-70
2023/01/10 01:04:14;;;;;;;1.88;1.20;;;;;;;6.25;100.00;99783.28;5017039;28;20433;-70
2023/01/10 01:06:43;;;;;;;2.33;1.30;;;;;;;6.24;100.00;99784.25;5016139;28;20045;-70
2023/01/10 01:09:08;;;;;;;3.92;1.38;;;;;;;6.24;100.00;99784.25;5017331;28;20389;-70
2023/01/10 01:11:33;;;;;;;2.70;1.70;;;;;;;6.24;100.00;99780.84;5011163;28;20048;-69
2023/01/10 01:13:59;;;;;;;2.15;1.25;;;;;;;6.23;100.00;99787.78;5012491;28;20034;-70
2023/01/10 01:16:24;;;;;;;1.83;0.88;;;;;;;6.19;100.00;99790.75;5015777;28;20040;-70
2023/01/10 01:18:50;;;;;;;1.60;1.00;;;;;;;6.13;100.00;99796.50;5010904;28;20133;-69
2023/01/10 01:21:15;;;;;;;2.58;1.58;;;;;;;6.13;100.00;99799.91;5015210;28;20038;-69
2023/01/10 01:23:41;;;;;;;3.92;1.80;;;;;;;6.16;100.00;99802.19;5011410;28;20029;-69
2023/01/10 01:26:07;;;;;;;4.13;1.55;;;;;;;6.16;100.00;99802.19;5013247;28;20057;-69
2023/01/10 01:28:32;;;;;;;4.65;1.90;;;;;;;6.14;100.00;99811.88;5012491;28;20045;-70
2023/01/10 01:30:58;;;;;;;2.72;1.50;;;;;;;6.14;100.00;99814.47;5010989;28;20030;-69
2023/01/10 01:33:23;;;;;;;5.55;2.05;;;;;;;6.15;100.00;99813.47;5014563;28;20030;-69
2023/01/10 01:35:49;;;;;;;4.72;2.58;;;;;;;6.10;100.00;99814.84;5011141;28;20037;-70
2023/01/10 01:38:16;;;;;;;5.25;2.42;;;;;;;6.07;100.00;99825.47;5017943;28;20049;-70
2023/01/10 01:40:41;;;;;;;6.13;3.03;;;;;;;6.01;100.00;99831.97;5014383;28;20045;-69
2023/01/10 01:43:25;;;;;;;5.15;2.78;;;;;;;6.02;100.00;99833.63;5019806;28;20493;-70
2023/01/10 01:45:51;;;;;;;6.15;3.30;;;;;;;6.04;100.00;99828.31;5014729;28;20160;-70
2023/01/10 01:48:36;;;;;;;6.88;3.63;;;;;;;6.07;100.00;99831.47;5019369;28;20511;-69
2023/01/10 01:51:04;;;;;;;4.70;2.63;;;;;;;6.11;100.00;99826.84;5012385;28;20029;-70
2023/01/10 01:53:45;;;;;;;5.10;2.05;;;;;;;6.09;100.00;99829.56;5011585;28;20497;-70
2023/01/10 01:56:21;;;;;;;3.88;2.03;;;;;;;6.07;100.00;99844.38;5011450;28;20029;-69
2023/01/10 01:58:51;;;;;;;4.57;2.28;;;;;;;6.10;100.00;99843.31;5014342;28;20025;-69
2023/01/10 02:01:18;;;;;;;4.07;3.17;;;;;;;6.07;100.00;99835.81;5011953;28;20433;-69
2023/01/10 02:03:48;;;;;;;3.97;2.25;;;;;;;6.06;100.00;99834.16;5013843;28;20029;-69
2023/01/10 02:06:16;;;;;;;4.53;3.25;;;;;;;6.07;100.00;99844.38;5017108;28;20029;-69
2023/01/10 02:08:46;;;;;;;2.55;2.17;;;;;;;6.04;100.00;99842.06;5011164;28;20121;-69
2023/01/10 02:11:11;;;;;;;5.03;3.60;;;;;;;6.01;100.00;99838.91;5015889;28;20466;-69
2023/01/10 02:13:41;;;;;;;4.75;2.33;;;;;;;5.99;100.00;99841.63;5013630;28;20087;-69
2023/01/10 02:16:07;;;;;;;3.72;2.40;;;;;;;6.00;100.00;99845.84;5013191;28;20037;-70
2023/01/10 02:18:33;;;;;;;2.78;2.25;;;;;;;6.00;100.00;99851.03;5010395;28;20042;-69
2023/01/10 02:21:19;;;;;;;4.10;1.98;;;;;;;5.99;100.00;99859.72;5015080;28;20132;-70
2023/01/10 02:23:50;;;;;;;3.03;1.40;;;;;;;5.97;100.00;99856.47;5011422;28;20105;-70
2023/01/10 02:26:33;;;;;;;4.50;1.80;;;;;;;5.99;100.00;99849.38;5014249;28;20054;-69
2023/01/10 02:29:13;;;;;;;2.38;1.77;;;;;;;5.98;100.00;99861.50;5011380;28;20117;-69
2023/01/10 02:32:06;;;;;;;4.25;1.80;;;;;;;5.92;100.00;99863.78;5008011;28;20104;-69
2023/01/10 02:34:44;;;;;;;3.55;1.40;;;;;;;5.96;100.00;99875.50;5015720;28;20033;-70
2023/01/10 02:37:17;;;;;;;3.75;1.02;;;;;;;5.94;100.00;99873.03;5011395;28;20120;-69
2023/01/10 02:39:59;;;;;;;3.63;1.40;;;;;;;5.92;100.00;99877.53;5014919;28;20036;-70
2023/01/10 02:42:30;;;;;;;3.75;1.77;;;;;;;5.91;100.00;99880.25;5016449;28;20143;-70
2023/01/10 02:45:31;;;;;;;1.80;0.80;;;;;;;5.91;100.00;99882.81;5015032;28;20029;-69
2023/01/10 02:47:57;;;;;;;6.00;1.10;;;;;;;5.92;100.00;99887.88;5000461;28;20034;-69
2023/01/10 02:50:36;;;;;;;2.72;0.75;;;;;;;5.88;100.00;99888.22;5009283;28;20095;-69
2023/01/10 02:53:12;;;;;;;2.20;0.90;;;;;;;5.88;100.00;99883.03;5011213;28;20041;-69
2023/01/10 02:55:43;;;;;;;2.00;0.75;;;;;;;5.89;100.00;99892.47;5009437;28;20022;-69
2023/01/10 02:58:21;;;;;;;2.47;0.75;;;;;;;5.80;100.00;99890.63;5011764;28;20033;-69
2023/01/10 03:01:12;;;;;;;2.40;0.70;;;;;;;5.72;100.00;99900.78;5011268;28;20046;-69
2023/01/10 03:04:02;;;;;;;1.67;0.70;;;;;;;5.77;100.00;99906.38;5009436;28;20041;-69
2023/01/10 03:06:46;;;;;;;1.00;0.50;;;;;;;5.78;100.00;99908.03;5007766;28;20045;-69
2023/01/10 03:09:44;;;;;;;3.42;0.68;;;;;;;5.71;100.00;99910.28;5005886;28;20764;-69
2023/01/10 03:12:42;;;;;;;1.20;0.57;;;;;;;5.72;100.00;99908.53;5010948;28;20515;-69
2023/01/10 03:15:12;;;;;;;1.40;0.50;;;;;;;5.72;100.00;99914.53;5004983;28;20409;-70
2023/01/10 03:17:40;;;;;;;3.25;0.50;;;;;;;5.72;100.00;99921.44;5012070;28;20030;-69
2023/01/10 03:20:06;;;;;;;1.30;0.43;;;;;;;5.72;100.00;99921.44;5011266;28;20037;-69
2023/01/10 03:22:36;;;;;;;2.47;0.52;;;;;;;5.71;100.00;99912.88;5009664;28;20497;-70
2023/01/10 03:25:05;;;;;;;1.60;0.90;;;;;;;5.73;100.00;99923.91;5016968;28;20461;-70
2023/01/10 03:28:02;;;;;;;1.83;0.50;;;;;;;5.67;100.00;99922.66;5012532;28;20113;-69
2023/01/10 03:30:38;;;;;;;2.40;0.73;;;;;;;5.66;100.00;99926.22;5008108;28;20177;-70
2023/01/10 03:33:04;;;;;;;1.52;0.43;;;;;;;5.65;100.00;99928.91;5010074;28;20073;-69
2023/01/10 03:35:42;;;;;;;1.35;0.40;;;;;;;5.64;100.00;99938.44;5009245;28;20069;-70
2023/01/10 03:38:20;;;;;;;1.10;0.40;;;;;;;5.56;100.00;99935.66;5018288;28;20041;-69
2023/01/10 03:40:48;;;;;;;1.20;0.55;;;;;;;5.56;100.00;99946.00;5014202;28;20469;-70
2023/01/10 03:46:35;;;;;;;3.60;0.95;;;;;;;5.52;100.00;99949.78;5012738;28;20060;-70
2023/01/10 03:49:04;;;;;;;1.88;0.80;;;;;;;5.55;100.00;99954.69;5005501;28;20026;-70
2023/01/10 03:51:30;;;;;;;1.30;0.73;;;;;;;5.50;100.00;99956.81;5016725;28;20172;-69
2023/01/10 03:54:00;;;;;;;1.75;0.50;;;;;;;5.51;100.00;99968.81;5015645;28;20113;-70
2023/01/10 03:56:25;;;;;;;2.38;0.50;;;;;;;5.49;100.00;99965.53;5010055;28;20044;-70
2023/01/10 03:58:51;;;;;;;1.73;0.57;;;;;;;5.47;100.00;99969.16;5016548;28;20390;-70
2023/01/10 04:01:17;;;;;;;2.78;0.60;;;;;;;5.41;100.00;99977.41;5011360;28;20044;-70
2023/01/10 04:03:43;;;;;;;2.13;0.60;;;;;;;5.38;100.00;99969.91;5009494;28;20037;-70
2023/01/10 04:06:08;;;;;;;2.90;0.65;;;;;;;5.37;100.00;99976.00;5012896;28;20487;-70
2023/01/10 04:08:34;;;;;;;1.35;0.60;;;;;;;5.38;100.00;99993.16;5015428;28;20025;-70
2023/01/10 04:10:59;;;;;;;1.67;0.63;;;;;;;5.34;100.00;99985.66;5016342;28;20481;-70
2023/01/10 04:13:25;;;;;;;1.73;0.50;;;;;;;5.30;100.00;99986.00;5015381;28;20042;-69
2023/01/10 04:15:50;;;;;;;2.33;0.60;;;;;;;5.22;100.00;99985.81;5013386;28;20454;-70
2023/01/10 04:18:16;;;;;;;1.77;0.40;;;;;;;5.18;100.00;99995.59;5018072;28;20409;-69
2023/01/10 04:20:41;;;;;;;2.45;0.65;;;;;;;5.14;100.00;100001.94;5010193;28;20034;-70
2023/01/10 04:23:07;;;;;;;1.55;0.52;;;;;;;5.11;100.00;100017.66;5013651;28;20045;-69
2023/01/10 04:25:32;;;;;;;4.70;0.60;;;;;;;5.08;100.00;100019.66;5009825;28;20045;-69
2023/01/10 04:27:57;;;;;;;0.82;0.30;;;;;;;5.02;100.00;100017.56;5013373;28;20520;-70
2023/01/10 04:30:23;;;;;;;2.55;0.50;;;;;;;5.00;100.00;100026.25;5011793;28;20030;-69
2023/01/10 04:32:48;;;;;;;1.30;0.73;;;;;;;4.97;100.00;100030.81;5015810;28;20509;-70
2023/01/10 04:35:14;;;;;;;0.82;0.40;;;;;;;4.96;100.00;100034.34;5009262;28;20034;-70
2023/01/10 04:37:39;;;;;;;3.53;0.52;;;;;;;4.93;100.00;100042.31;5014074;28;20054;-70
2023/01/10 04:40:05;;;;;;;2.40;0.70;;;;;;;4.91;100.00;100045.03;5008660;28;20089;-70
2023/01/10 04:42:31;;;;;;;2.92;0.55;;;;;;;4.87;100.00;100041.03;5009355;28;20060;-70
2023/01/10 04:44:56;;;;;;;1.50;0.70;;;;;;;4.86;100.00;100043.72;5006549;28;20176;-70
2023/01/10 04:47:22;;;;;;;2.83;0.40;;;;;;;4.84;100.00;100046.44;5019599;28;20038;-70
2023/01/10 04:49:47;;;;;;;3.78;0.80;;;;;;;4.84;100.00;100051.59;5013847;28;20360;-70
2023/01/10 04:52:12;;;;;;;4.47;0.90;;;;;;;4.86;100.00;100054.88;5014648;28;20160;-70
2023/01/10 04:54:38;;;;;;;2.65;0.73;;;;;;;4.85;100.00;100057.56;5011663;28;20128;-70
2023/01/10 04:57:05;;;;;;;3.70;0.80;;;;;;;4.81;100.00;100064.72;5015487;28;20469;-70
2023/01/10 04:59:31;;;;;;;1.77;0.70;;;;;;;4.75;100.00;100066.97;5010896;28;20497;-70
2023/01/10 05:01:58;;;;;;;1.67;0.68;;;;;;;4.73;100.00;100069.66;5012622;28;20053;-70
2023/01/10 05:04:24;;;;;;;2.05;0.82;;;;;;;4.70;100.00;100069.91;5011416;28;20815;-70
2023/01/10 05:06:49;;;;;;;2.92;0.90;;;;;;;4.72;100.00;100085.28;5011656;28;20038;-70
2023/01/10 05:09:15;;;;;;;3.15;0.82;;;;;;;4.70;100.00;100082.81;5012280;28;20048;-69
2023/01/10 05:11:40;;;;;;;1.38;0.55;;;;;;;4.65;100.00;100093.50;5010646;28;20022;-70
2023/01/10 05:14:06;;;;;;;1.55;0.43;;;;;;;4.58;100.00;100094.88;5016850;28;20495;-70
2023/01/10 05:16:32;;;;;;;2.40;0.50;;;;;;;4.56;100.00;100098.50;5011761;28;20030;-70
2023/01/10 05:18:57;;;;;;;2.80;0.68;;;;;;;4.53;100.00;100109.06;5017175;28;20024;-70
2023/01/10 05:21:22;;;;;;;1.23;0.35;;;;;;;4.51;100.00;100105.78;5028018;28;20042;-70
2023/01/10 05:23:48;;;;;;;1.50;0.57;;;;;;;4.49;100.00;100112.81;5029698;28;20530;-70
2023/01/10 05:26:21;;;;;;;3.08;1.00;;;;;;;4.47;100.00;100122.41;5013195;28;20037;-70
2023/01/10 05:28:47;;;;;;;3.72;1.77;;;;;;;4.41;100.00;100125.44;5019539;28;20030;-70
2023/01/10 05:31:15;;;;;;;3.05;1.70;;;;;;;4.43;100.00;100118.41;5024572;28;20477;-70
2023/01/10 05:33:49;;;;;;;3.67;2.20;;;;;;;4.47;100.00;100125.00;5025181;28;20030;-70
2023/01/10 05:36:15;;;;;;;7.40;3.33;;;;;;;4.50;100.00;100129.94;5020686;28;20061;-70
2023/01/10 05:38:41;;;;;;;5.45;3.58;;;;;;;4.48;100.00;100131.81;5019047;28;20063;-69
2023/01/10 05:41:07;;;;;;;5.95;4.07;;;;;;;4.50;100.00;100140.25;5021050;28;20128;-70
2023/01/10 05:43:33;;;;;;;4.68;3.42;;;;;;;4.49;100.00;100133.44;5022190;28;20362;-70
2023/01/10 05:45:58;;;;;;;7.25;4.00;;;;;;;4.45;100.00;100147.50;5018792;28;20041;-70
2023/01/10 05:48:24;;;;;;;4.47;2.83;;;;;;;4.43;100.00;100157.94;5013517;28;20473;-70
2023/01/10 05:50:50;;;;;;;4.05;2.75;;;;;;;4.42;100.00;100155.47;5016061;28;20041;-70
2023/01/10 05:53:17;;;;;;;4.00;3.28;;;;;;;4.36;100.00;100163.66;5011271;28;20038;-70
2023/01/10 05:55:43;;;;;;;6.72;4.32;;;;;;;4.32;100.00;100158.72;5015309;28;20490;-70
2023/01/10 05:58:10;;;;;;;4.38;2.97;;;;;;;4.30;100.00;100162.34;5011024;28;20045;-70
2023/01/10 06:00:37;;;;;;;4.65;2.72;;;;;;;4.25;100.00;100167.81;5011604;28;20462;-70
2023/01/10 06:03:02;;;;;;;8.32;3.83;;;;;;;4.22;100.00;100169.84;5016999;28;20033;-69
2023/01/10 06:05:28;;;;;;;10.07;4.60;;;;;;;4.21;100.00;100171.59;5009725;28;20025;-70
2023/01/10 06:07:53;;;;;;;5.05;2.75;;;;;;;4.21;100.00;100178.50;5014399;28;20034;-70
2023/01/10 06:10:19;;;;;;;5.75;3.65;;;;;;;4.22;100.00;100183.56;5014169;28;20036;-70
2023/01/10 06:12:44;;;;;;;12.38;4.97;;;;;;;4.27;100.00;100178.84;5014664;28;20033;-70
2023/01/10 06:15:10;;;;;;;7.72;3.47;;;;;;;4.25;100.00;100188.47;5014993;28;20055;-69
2023/01/10 06:17:35;;;;;;;9.15;4.38;;;;;;;4.24;100.00;100197.16;5012029;28;20052;-70
2023/01/10 06:20:01;;;;;;;8.45;4.75;;;;;;;4.28;100.00;100203.72;5011076;28;20026;-70
2023/01/10 06:22:27;;;;;;;7.25;3.70;;;;;;;4.23;100.00;100198.09;5008406;28;20033;-70
2023/01/10 06:24:53;;;;;;;8.02;4.45;;;;;;;4.16;100.00;100203.78;5014709;28;20021;-69
2023/01/10 06:27:19;;;;;;;6.60;4.28;;;;;;;4.11;100.00;100211.03;5014484;28;20492;-69
2023/01/10 06:29:44;;;;;;;11.27;6.13;;;;;;;4.16;100.00;100219.25;5011898;28;20033;-70
2023/01/10 06:32:10;;;;;;;12.38;7.25;;;;;;;4.25;100.00;100226.34;5015113;28;20037;-70
2023/01/10 06:34:35;;;;;;;11.18;6.50;;;;;;;4.31;100.00;100224.13;5012736;28;20046;-69
2023/01/10 06:37:01;;;;;;;10.18;6.20;;;;;;;4.29;100.00;100233.72;5012348;28;20053;-69
2023/01/10 06:39:26;;;;;;;9.88;5.53;;;;;;;4.19;100.00;100235.34;5011440;28;20034;-70
2023/01/10 06:41:52;;;;;;;11.07;6.63;;;;;;;4.09;100.00;100242.09;5014625;28;20032;-70
2023/01/10 06:44:17;;;;;;;14.27;6.35;;;;;;;4.04;100.00;100253.66;5017502;28;20092;-70
2023/01/10 06:46:42;;;;;;;12.05;6.25;;;;;;;4.04;100.00;100256.22;5011509;28;20038;-69
2023/01/10 06:49:08;;;;;;;10.60;6.32;;;;;;;3.99;100.00;100269.44;5011943;28;20493;-69
2023/01/10 06:51:33;;;;;;;11.00;5.93;;;;;;;4.11;100.00;100271.16;5009760;28;20026;-70
2023/01/10 06:53:59;;;;;;;10.15;5.03;;;;;;;4.17;100.00;100278.47;5012634;28;20034;-69
2023/01/10 06:56:24;;;;;;;13.18;5.68;;;;;;;4.15;100.00;100270.00;5016112;28;20080;-70
2023/01/10 06:58:50;;;;;;;10.60;6.00;;;;;;;4.14;100.00;100272.69;5011816;28;20026;-69
2023/01/10 07:01:19;;;;;;;12.18;6.53;;;;;;;4.06;100.00;100286.13;5011148;28;20034;-69
2023/01/10 07:03:44;;;;;;;15.52;6.70;;;;;;;4.07;100.00;100297.25;4992494;28;20036;-69
2023/01/10 07:06:10;;;;;;;11.48;7.20;;;;;;;4.13;100.00;100302.81;4989986;28;20017;-70
2023/01/10 07:08:39;;;;;;;12.43;6.75;;;;;;;4.07;100.00;100300.66;4990388;28;20045;-70
2023/01/10 07:11:06;;;;;;;10.65;5.05;;;;;;;4.03;100.00;100312.13;4993232;28;20033;-69
2023/01/10 07:13:31;;;;;;;11.93;5.57;;;;;;;3.98;100.00;100315.00;5019803;28;20092;-70
2023/01/10 07:16:11;;;;;;;8.73;4.63;;;;;;;3.93;100.00;100321.41;5011953;28;20062;-70
2023/01/10 07:18:39;;;;;;;9.65;4.05;;;;;;;3.87;100.00;100326.97;4988119;28;20151;-69
2023/01/10 07:21:05;;;;;;;5.85;3.63;;;;;;;3.82;100.00;100334.19;4995020;28;20045;-70
2023/01/10 07:23:31;;;;;;;9.80;3.35;;;;;;;3.77;100.00;100337.13;4986585;28;20129;-70
2023/01/10 07:25:57;;;;;;;6.05;3.65;;;;;;;3.73;100.00;100335.69;4987408;28;20116;-69
2023/01/10 07:28:23;;;;;;;7.72;3.78;;;;;;;3.71;100.00;100339.28;5002935;28;20465;-70
2023/01/10 07:30:49;;;;;;;4.97;3.35;;;;;;;3.66;100.00;100340.41;4997690;28;20037;-70
2023/01/10 07:33:14;;;;;;;7.00;3.20;;;;;;;3.63;100.00;100352.69;4988027;28;20184;-69
2023/01/10 07:35:40;;;;;;;10.80;4.07;;;;;;;3.62;100.00;100340.72;4986666;28;20565;-69
2023/01/10 07:38:06;;;;;;;5.03;3.53;;;;;;;3.61;100.00;100352.78;4988762;28;20714;-70
2023/01/10 07:40:31;;;;;;;5.78;3.83;;;;;;;3.60;100.00;100356.28;4987786;28;20228;-69
2023/01/10 07:42:58;;;;;;;7.88;3.67;;;;;;;3.61;100.00;100354.53;5001662;28;20609;-69
2023/01/10 07:45:25;;;;;;;6.82;4.20;;;;;;;3.62;100.00;100369.91;4999392;28;20503;-69
2023/01/10 07:47:55;;;;;;;6.65;3.70;;;;;;;3.65;100.00;100363.72;4994711;28;20775;-70
2023/01/10 07:50:20;;;;;;;6.50;3.78;;;;;;;3.64;100.00;100362.88;4990697;28;20955;-69
2023/01/10 07:52:46;;;;;;;9.00;4.65;;;;;;;3.68;100.00;100371.25;4988783;28;20046;-70
2023/01/10 07:55:11;;;;;;;8.23;4.72;;;;;;;3.71;100.00;100380.50;4997207;28;20524;-69
2023/01/10 07:57:37;;;;;;;8.95;5.32;;;;;;;3.72;100.00;100377.00;5005088;28;20124;-69
2023/01/10 08:00:02;;;;;;;12.10;6.22;;;;;;;3.81;100.00;100374.63;5020146;28;20044;-69
2023/01/10 08:02:28;;;;;;;14.07;7.43;;;;;;;3.90;100.00;100383.47;5011743;28;20400;-69
2023/01/10 08:04:53;;;;;;;12.63;6.93;;;;;;;3.99;100.00;100394.00;5014891;28;20046;-69
2023/01/10 08:07:19;;;;;;;13.02;8.70;;;;;;;4.04;100.00;100401.44;5026065;28;20071;-69
2023/01/10 08:09:45;;;;;;;13.77;8.50;;;;;;;4.11;100.00;100401.84;5019507;28;20038;-69
2023/01/10 08:12:11;;;;;;;16.20;9.52;;;;;;;4.16;100.00;100410.09;5022331;28;20052;-69
2023/01/10 08:14:36;;;;;;;16.98;10.15;;;;;;;4.21;100.00;100408.84;5011667;28;20384;-69
2023/01/10 08:17:01;;;;;;;17.77;10.23;;;;;;;4.28;100.00;100407.47;5021882;28;20041;-70
2023/01/10 08:19:27;;;;;;;17.75;11.02;;;;;;;4.33;100.00;100423.44;5015825;28;20029;-69
2023/01/10 08:21:55;;;;;;;19.25;10.85;;;;;;;4.41;100.00;100422.09;5016923;28;20471;-70
2023/01/10 08:24:21;;;;;;;18.27;11.02;;;;;;;4.50;100.00;100418.88;5014420;28;20037;-69
2023/01/10 08:26:46;;;;;;;20.35;11.88;;;;;;;4.60;100.00;100419.91;5012275;28;20030;-69
2023/01/10 08:29:12;;;;;;;15.65;10.35;;;;;;;4.67;100.00;100434.03;5021942;28;20037;-69
2023/01/10 08:31:40;;;;;;;9.52;5.93;;;;;;;4.88;100.00;100432.50;5014905;28;20037;-70
2023/01/10 08:34:05;;;;;;;9.35;5.03;;;;;;;5.14;100.00;100433.22;5015949;28;20421;-70
2023/01/10 08:36:31;;;;;;;6.57;4.10;;;;;;;5.33;100.00;100445.63;5018029;28;20034;-70
2023/01/10 08:38:56;;;;;;;7.40;3.70;;;;;;;5.52;100.00;100448.50;5016245;28;20037;-69
2023/01/10 08:41:22;;;;;;;5.53;2.65;;;;;;;5.63;100.00;100453.72;5016357;28;20569;-70
2023/01/10 08:43:51;;;;;;;6.82;3.85;;;;;;;5.70;100.00;100458.41;5015499;28;20084;-70
2023/01/10 08:46:19;;;;;;;8.02;3.03;;;;;;;5.65;100.00;100462.19;5013114;28;20037;-69
2023/01/10 08:48:44;;;;;;;7.30;3.78;;;;;;;5.65;100.00;100471.72;5021341;28;20041;-70
2023/01/10 08:51:10;;;;;;;6.15;3.63;;;;;;;5.68;100.00;100480.03;5016469;28;20030;-69
2023/01/10 08:53:38;;;;;;;15.52;3.03;;;;;;;5.75;100.00;100485.56;5015782;28;20064;-70
2023/01/10 08:56:04;;;;;;;5.70;3.78;;;;;;;5.76;100.00;100482.06;5013122;28;20021;-70
2023/01/10 08:58:29;;;;;;;7.15;4.72;;;;;;;5.86;100.00;100489.97;5011334;28;20040;-69
2023/01/10 09:00:55;;;;;;;5.55;4.10;;;;;;;5.94;100.00;100500.59;5012064;28;20069;-69
2023/01/10 09:03:20;;;;;;;6.28;3.60;;;;;;;6.03;100.00;100499.09;5010936;28;20111;-70
2023/01/10 09:05:46;;;;;;;4.63;3.08;;;;;;;6.06;100.00;100507.44;5014974;28;20041;-69
2023/01/10 09:08:11;;;;;;;5.75;3.55;;;;;;;6.04;100.00;100505.91;5014684;28;20030;-70
2023/01/10 09:10:37;;;;;;;7.53;3.53;;;;;;;6.07;100.00;100509.09;5014315;28;20485;-69
2023/01/10 09:13:03;;;;;;;6.80;2.58;;;;;;;6.11;100.00;100514.88;5012551;28;20014;-70
2023/01/10 09:15:34;;;;;;;4.28;3.03;;;;;;;6.20;100.00;100514.97;5011844;28;20030;-70
2023/01/10 09:18:05;;;;;;;6.85;3.35;;;;;;;6.31;100.00;100520.16;5012210;28;20041;-69
2023/01/10 09:20:34;;;;;;;10.13;4.30;;;;;;;6.40;100.00;100516.06;5012294;28;20029;-70
2023/01/10 09:23:05;;;;;;;6.45;4.20;;;;;;;6.50;100.00;100522.19;5011607;28;20028;-69
2023/01/10 09:25:30;;;;;;;5.90;3.28;;;;;;;6.65;100.00;100526.19;5017297;28;20053;-69
2023/01/10 09:28:00;;;;;;;7.47;3.25;;;;;;;6.69;100.00;100531.94;5011879;28;20034;-70
2023/01/10 09:30:27;;;;;;;4.25;2.30;;;;;;;6.70;100.00;100535.38;5011638;28;20034;-70
2023/01/10 09:32:53;;;;;;;4.00;2.17;;;;;;;6.76;100.00;100542.66;5018133;28;20025;-69
2023/01/10 09:35:19;;;;;;;4.55;2.60;;;;;;;6.81;100.00;100551.72;5008256;28;20034;-70
2023/01/10 09:37:44;;;;;;;5.13;2.97;;;;;;;6.85;100.00;100557.50;5014462;28;20389;-70
2023/01/10 09:40:15;;;;;;;4.65;2.58;;;;;;;6.86;100.00;100565.16;5017212;28;20037;-70
2023/01/10 09:42:59;;;;;;;7.18;3.83;;;;;;;6.95;100.00;100569.63;5010832;28;20470;-70
2023/01/10 09:45:50;;;;;;;5.85;3.65;;;;;;;7.06;100.00;100573.16;5017433;28;20120;-70
2023/01/10 09:48:54;;;;;;;5.40;3.13;;;;;;;7.20;100.00;100559.91;5039300;28;20049;-70
2023/01/10 09:51:47;;;;;;;6.65;3.45;;;;;;;7.31;100.00;100563.31;5012686;28;20077;-70
2023/01/10 09:54:32;;;;;;;8.63;4.65;;;;;;;7.36;100.00;100564.72;5018068;28;20037;-69
2023/01/10 09:57:00;;;;;;;8.95;4.68;;;;;;;7.44;100.00;100570.13;5038782;28;20034;-69
2023/01/10 09:59:36;;;;;;;6.95;4.32;;;;;;;7.45;100.00;100577.78;5005733;28;20054;-69
2023/01/10 10:02:24;;;;;;;7.75;4.82;;;;;;;7.43;100.00;100568.50;5009138;28;20109;-68
2023/01/10 10:05:16;;;;;;;9.38;4.50;;;;;;;7.42;100.00;100578.03;5009425;28;20057;-70
2023/01/10 10:07:42;;;;;;;8.13;4.40;;;;;;;7.50;100.00;100574.84;5014538;28;20433;-69
2023/01/10 10:10:20;;;;;;;7.25;3.85;;;;;;;7.46;100.00;100568.25;5014995;28;20112;-70
2023/01/10 10:12:54;;;;;;;6.90;4.18;;;;;;;7.42;100.00;100572.84;5024617;28;20037;-69
2023/01/10 10:15:25;;;;;;;8.93;4.00;;;;;;;7.45;100.00;100577.78;5017426;28;20036;-70
2023/01/10 10:18:33;;;;;;;5.18;3.55;;;;;;;7.43;100.00;100569.31;5011369;28;20769;-70
2023/01/10 10:21:20;;;;;;;4.72;2.97;;;;;;;7.47;100.00;100569.91;5008533;28;20113;-70
2023/01/10 10:23:57;;;;;;;7.97;3.60;;;;;;;7.65;100.00;100569.22;5008062;28;20036;-69
2023/01/10 10:26:34;;;;;;;8.05;3.58;;;;;;;7.71;100.00;100574.88;5006533;28;20065;-70
2023/01/10 10:29:42;;;;;;;6.13;3.17;;;;;;;7.70;100.00;100576.63;4985033;28;20417;-69
2023/01/10 10:32:23;;;;;;;7.72;4.15;;;;;;;7.73;100.00;100573.81;5002613;28;20053;-70
2023/01/10 10:34:57;;;;;;;7.57;4.80;;;;;;;7.77;100.00;100566.59;5006368;28;20034;-70
2023/01/10 10:37:31;;;;;;;5.55;3.95;;;;;;;7.80;100.00;100574.13;4990275;28;20036;-70
2023/01/10 10:40:05;;;;;;;6.95;4.22;;;;;;;7.81;100.00;100589.56;5006665;28;20588;-70
2023/01/10 10:42:36;;;;;;;8.10;4.90;;;;;;;7.83;100.00;100590.28;5008896;28;20584;-69
2023/01/10 10:45:14;;;;;;;7.53;4.78;;;;;;;7.85;100.00;100587.56;5006653;28;20041;-69
2023/01/10 10:47:48;;;;;;;7.43;4.50;;;;;;;7.78;100.00;100589.00;5006477;28;20065;-69
2023/01/10 10:50:14;;;;;;;9.73;5.50;;;;;;;7.73;100.00;100594.56;5006705;28;20044;-68
2023/01/10 10:52:41;;;;;;;7.57;4.65;;;;;;;7.92;100.00;100589.53;5006243;28;20033;-68
2023/01/10 10:55:12;;;;;;;9.02;4.90;;;;;;;7.98;100.00;100585.63;5007177;28;20037;-68
2023/01/10 10:57:40;;;;;;;10.65;5.32;;;;;;;7.89;100.00;100591.56;5007604;28;20037;-70
2023/01/10 11:00:07;;;;;;;7.93;4.25;;;;;;;7.86;100.00;100597.00;5017266;28;20128;-69
2023/01/10 11:02:45;;;;;;;7.30;5.47;;;;;;;7.84;100.00;100596.28;5012442;28;20103;-70
2023/01/10 11:05:20;;;;;;;6.70;4.30;;;;;;;7.77;100.00;100592.53;5006042;28;20034;-69
2023/01/10 11:07:47;;;;;;;8.10;4.10;;;;;;;7.76;100.00;100596.06;5011616;28;20068;-69
2023/01/10 11:12:46;;;;;;;6.72;3.53;;;;;;;7.84;100.00;100604.06;5011482;28;20045;-70
2023/01/10 11:15:36;;;;;;;6.20;3.28;;;;;;;7.98;100.00;100602.00;5017530;28;20056;-69
2023/01/10 11:18:13;;;;;;;8.02;3.45;;;;;;;8.07;100.00;100605.59;5016292;28;20033;-70
2023/01/10 11:20:51;;;;;;;6.05;3.83;;;;;;;8.10;100.00;100605.34;5014657;28;20045;-70
2023/01/10 11:23:29;;;;;;;7.00;3.60;;;;;;;8.11;100.00;100611.38;5014190;28;20025;-70
2023/01/10 11:25:55;;;;;;;6.80;3.65;;;;;;;8.10;100.00;100613.16;5019760;28;20509;-70
2023/01/10 11:28:27;;;;;;;6.18;4.30;;;;;;;8.14;100.00;100600.75;5014436;28;20120;-70
2023/01/10 11:30:54;;;;;;;5.22;3.30;;;;;;;8.36;100.00;100598.06;5016432;28;20500;-69
2023/01/10 11:33:28;;;;;;;6.10;3.25;;;;;;;8.63;100.00;100606.16;5017147;28;20143;-70
2023/01/10 11:36:14;;;;;;;4.18;3.03;;;;;;;8.89;100.00;100598.75;5016529;28;20026;-70
2023/01/10 11:38:41;;;;;;;4.45;2.95;;;;;;;8.96;100.00;100589.50;5014417;28;20113;-69
2023/01/10 11:41:32;;;;;;;4.03;2.28;;;;;;;8.88;100.00;100606.69;5017030;28;20473;-70
2023/01/10 11:44:20;;;;;;;5.20;3.20;;;;;;;8.79;100.00;100595.28;5014606;28;20045;-70
2023/01/10 11:46:47;;;;;;;6.43;3.42;;;;;;;8.80;100.00;100599.53;5016549;28;20037;-70
2023/01/10 11:49:21;;;;;;;5.70;3.95;;;;;;;8.80;100.00;100615.13;5017315;28;20060;-70